createdAt,value
2018-03-18T00:00:34.781Z,73.00
2018-03-18T00:03:03.158Z,73.00
2018-03-18T00:05:32.310Z,73.10
2018-03-18T00:08:00.679Z,73.00
2018-03-18T00:10:29.272Z,73.40
2018-03-18T00:12:57.653Z,72.80
2018-03-18T00:15:26.030Z,73.30
2018-03-18T00:17:54.481Z,73.90
2018-03-18T00:20:23.618Z,73.90
2018-03-18T00:22:52.046Z,73.90
2018-03-18T00:25:21.178Z,73.50
2018-03-18T00:27:49.865Z,73.40
2018-03-18T00:30:18.243Z,73.40
2018-03-18T00:32:46.621Z,73.30
2018-03-18T00:35:15.026Z,73.30
2018-03-18T00:37:43.397Z,71.60
2018-03-18T00:40:11.792Z,70.20
2018-03-18T00:42:40.158Z,70.30
2018-03-18T00:45:08.543Z,70.50
2018-03-18T00:47:36.964Z,70.90
2018-03-18T00:50:05.369Z,70.50
2018-03-18T00:52:33.761Z,70.60
2018-03-18T00:55:02.126Z,70.40
2018-03-18T00:57:30.813Z,70.80
2018-03-18T00:59:59.193Z,70.80
2018-03-18T01:02:27.570Z,71.40
2018-03-18T01:04:55.984Z,71.00
2018-03-18T01:07:24.358Z,69.90
2018-03-18T01:09:52.748Z,69.60
2018-03-18T01:12:21.114Z,70.00
2018-03-18T01:14:49.770Z,70.20
2018-03-18T01:17:19.495Z,70.30
2018-03-18T01:19:47.921Z,70.10
2018-03-18T01:22:27.214Z,70.30
2018-03-18T01:24:58.655Z,69.60
2018-03-18T01:27:35.275Z,69.60
2018-03-18T01:30:05.566Z,69.60
2018-03-18T01:32:36.409Z,70.10
2018-03-18T01:35:05.166Z,70.30
2018-03-18T01:37:33.551Z,70.60
2018-03-18T01:40:01.950Z,70.00
2018-03-18T01:42:30.335Z,70.40
2018-03-18T01:44:59.497Z,69.90
2018-03-18T01:47:27.937Z,69.80
2018-03-18T01:49:56.566Z,70.30
2018-03-18T01:52:24.937Z,70.10
2018-03-18T01:54:53.307Z,70.30
2018-03-18T01:57:21.730Z,69.70
2018-03-18T01:59:50.109Z,70.00
2018-03-18T02:02:18.599Z,69.40
2018-03-18T02:04:48.265Z,70.10
2018-03-18T02:07:17.187Z,70.10
2018-03-18T02:09:46.321Z,70.80
2018-03-18T02:12:14.694Z,70.80
2018-03-18T02:14:43.896Z,69.60
2018-03-18T02:17:13.030Z,69.40
2018-03-18T02:19:41.437Z,69.40
2018-03-18T02:22:09.893Z,69.00
2018-03-18T02:24:38.577Z,69.70
2018-03-18T02:27:06.966Z,70.10
2018-03-18T02:29:35.334Z,70.50
2018-03-18T02:32:03.815Z,71.30
2018-03-18T02:34:32.197Z,71.50
2018-03-18T02:37:00.713Z,72.30
2018-03-18T02:39:29.100Z,72.30
2018-03-18T02:41:58.291Z,73.20
2018-03-18T02:44:26.671Z,73.10
2018-03-18T02:46:55.046Z,74.60
2018-03-18T02:49:23.446Z,74.00
2018-03-18T02:51:52.583Z,74.60
2018-03-18T02:54:20.994Z,74.60
2018-03-18T02:56:50.878Z,73.40
2018-03-18T02:59:19.298Z,73.40
2018-03-18T03:01:47.675Z,74.30
2018-03-18T03:04:16.824Z,73.70
2018-03-18T03:06:45.230Z,73.70
2018-03-18T03:09:13.607Z,73.90
2018-03-18T03:11:42.012Z,73.20
2018-03-18T03:14:11.153Z,73.90
2018-03-18T03:16:39.741Z,73.90
2018-03-18T03:19:08.119Z,73.90
2018-03-18T03:21:36.493Z,74.30
2018-03-18T03:24:05.393Z,74.20
2018-03-18T03:26:34.306Z,74.70
2018-03-18T03:29:03.437Z,75.50
2018-03-18T03:31:33.093Z,75.90
2018-03-18T03:34:01.983Z,75.90
2018-03-18T03:36:30.961Z,76.30
2018-03-18T03:38:59.850Z,75.80
2018-03-18T03:41:28.834Z,75.90
2018-03-18T03:43:58.782Z,76.30
2018-03-18T03:46:27.695Z,76.20
2018-03-18T03:48:56.841Z,75.20
2018-03-18T03:51:26.136Z,75.10
2018-03-18T03:53:54.534Z,75.50
2018-03-18T03:56:22.915Z,75.90
2018-03-18T03:58:51.313Z,75.10
2018-03-18T04:01:19.694Z,75.30
2018-03-18T04:03:48.119Z,75.50
2018-03-18T04:06:16.506Z,74.70
2018-03-18T04:08:44.931Z,75.10
2018-03-18T04:11:13.312Z,75.90
2018-03-18T04:13:41.694Z,75.60
2018-03-18T04:16:10.095Z,75.20
2018-03-18T04:18:39.244Z,75.70
2018-03-18T04:21:07.646Z,75.70
2018-03-18T04:23:36.053Z,75.60
2018-03-18T04:26:05.397Z,75.20
2018-03-18T04:28:33.781Z,75.10
2018-03-18T04:31:02.161Z,75.20
2018-03-18T04:33:30.555Z,75.10
2018-03-18T04:35:58.946Z,74.60
2018-03-18T04:38:27.354Z,74.40
2018-03-18T04:40:56.494Z,73.90
2018-03-18T04:43:24.905Z,73.90
2018-03-18T04:45:53.288Z,73.80
2018-03-18T04:48:21.662Z,74.30
2018-03-18T04:50:50.062Z,74.50
2018-03-18T04:53:19.201Z,74.20
2018-03-18T04:55:47.593Z,74.10
2018-03-18T04:58:15.969Z,74.80
2018-03-18T05:00:44.388Z,74.40
2018-03-18T05:03:13.533Z,74.40
2018-03-18T05:05:41.926Z,74.40
2018-03-18T05:08:10.325Z,74.60
2018-03-18T05:10:38.706Z,74.30
2018-03-18T05:13:07.111Z,74.80
2018-03-18T05:15:35.486Z,74.90
2018-03-18T05:18:04.665Z,75.30
2018-03-18T05:20:33.814Z,75.20
2018-03-18T05:23:02.201Z,75.10
2018-03-18T05:25:30.603Z,74.80
2018-03-18T05:27:58.974Z,74.60
2018-03-18T05:30:27.383Z,74.90
2018-03-18T05:32:56.537Z,73.90
2018-03-18T05:35:25.111Z,73.80
2018-03-18T05:37:53.502Z,74.10
2018-03-18T05:40:21.888Z,73.80
2018-03-18T05:42:50.298Z,74.30
2018-03-18T05:45:19.444Z,73.90
2018-03-18T05:47:47.845Z,73.90
2018-03-18T05:50:16.229Z,73.50
2018-03-18T05:52:44.868Z,74.20
2018-03-18T05:55:13.241Z,74.00
2018-03-18T05:57:41.618Z,73.50
2018-03-18T06:00:10.024Z,73.10
2018-03-18T06:02:38.400Z,72.40
2018-03-18T06:05:06.802Z,72.50
2018-03-18T06:07:35.186Z,72.80
2018-03-18T06:10:03.760Z,72.70
2018-03-18T06:12:32.151Z,72.90
2018-03-18T06:15:01.328Z,73.20
2018-03-18T06:17:29.751Z,73.10
2018-03-18T06:19:58.901Z,72.30
2018-03-18T06:22:27.307Z,72.30
2018-03-18T06:24:55.700Z,71.60
2018-03-18T06:27:24.882Z,72.50
2018-03-18T06:29:53.258Z,72.40
2018-03-18T06:32:21.662Z,72.00
2018-03-18T06:34:50.829Z,71.60
2018-03-18T06:37:19.210Z,71.60
2018-03-18T06:39:47.646Z,69.80
2018-03-18T06:42:16.022Z,70.20
2018-03-18T06:44:44.427Z,69.60
2018-03-18T06:47:12.809Z,69.50
2018-03-18T06:49:48.450Z,68.80
2018-03-18T06:52:16.831Z,68.90
2018-03-18T06:54:45.213Z,68.90
2018-03-18T06:57:13.611Z,68.20
2018-03-18T06:59:41.997Z,67.50
2018-03-18T07:02:10.400Z,67.50
2018-03-18T07:04:38.778Z,67.70
2018-03-18T07:07:07.392Z,67.80
2018-03-18T07:09:35.789Z,68.00
2018-03-18T07:12:04.167Z,68.10
2018-03-18T07:14:32.639Z,66.60
2018-03-18T07:17:02.584Z,67.30
2018-03-18T07:19:30.992Z,66.20
2018-03-18T07:21:59.374Z,66.40
2018-03-18T07:24:27.878Z,67.20
2018-03-18T07:26:56.266Z,66.80
2018-03-18T07:29:24.652Z,67.20
2018-03-18T07:31:53.054Z,67.30
2018-03-18T07:34:21.429Z,67.50
2018-03-18T07:36:50.602Z,67.10
2018-03-18T07:39:19.022Z,67.10
2018-03-18T07:41:47.662Z,68.20
2018-03-18T07:44:16.039Z,66.60
2018-03-18T07:46:44.414Z,67.10
2018-03-18T07:49:12.820Z,66.70
2018-03-18T07:51:41.192Z,67.50
2018-03-18T07:54:09.718Z,67.00
2018-03-18T07:56:38.858Z,67.20
2018-03-18T07:59:07.428Z,67.20
2018-03-18T08:01:35.806Z,66.80
2018-03-18T08:04:04.197Z,67.90
2018-03-18T08:06:32.603Z,67.90
2018-03-18T08:09:00.979Z,67.70
2018-03-18T08:11:29.383Z,67.60
2018-03-18T08:13:58.583Z,67.20
2018-03-18T08:16:27.214Z,67.10
2018-03-18T08:18:55.594Z,67.10
2018-03-18T08:21:23.979Z,67.30
2018-03-18T08:23:52.377Z,67.20
2018-03-18T08:26:20.799Z,66.50
2018-03-18T08:28:49.955Z,66.80
2018-03-18T08:31:18.339Z,66.80
2018-03-18T08:33:47.107Z,66.30
2018-03-18T08:36:15.504Z,66.80
2018-03-18T08:38:43.883Z,67.20
2018-03-18T08:41:12.291Z,67.10
2018-03-18T08:43:41.441Z,67.10
2018-03-18T08:46:09.839Z,67.10
2018-03-18T08:48:38.219Z,66.20
2018-03-18T08:51:06.670Z,66.30
2018-03-18T08:53:35.046Z,65.30
2018-03-18T08:56:04.138Z,65.40
2018-03-18T08:58:32.570Z,64.50
2018-03-18T09:01:01.712Z,64.50
2018-03-18T09:03:30.111Z,64.50
2018-03-18T09:06:04.283Z,64.30
2018-03-18T09:08:39.003Z,64.60
2018-03-18T09:11:08.302Z,64.30
2018-03-18T09:13:36.734Z,64.80
2018-03-18T09:16:05.133Z,64.00
2018-03-18T09:18:34.396Z,64.00
2018-03-18T09:21:03.949Z,63.70
2018-03-18T09:23:32.707Z,63.60
2018-03-18T09:26:02.152Z,62.20
2018-03-18T09:28:30.975Z,62.20
2018-03-18T09:31:01.682Z,61.40
2018-03-18T09:33:31.790Z,60.90
2018-03-18T09:36:00.186Z,59.90
2018-03-18T09:38:31.602Z,59.60
2018-03-18T09:41:01.682Z,59.60
2018-03-18T09:43:31.922Z,59.90
2018-03-18T09:46:00.370Z,59.20
2018-03-18T09:48:31.616Z,59.50
2018-03-18T09:51:02.387Z,58.70
2018-03-18T09:53:33.945Z,59.10
2018-03-18T09:56:02.693Z,59.80
2018-03-18T09:58:31.094Z,59.60
2018-03-18T10:00:59.607Z,58.30
2018-03-18T10:03:28.778Z,57.80
2018-03-18T10:05:57.161Z,57.70
2018-03-18T10:08:25.659Z,57.70
2018-03-18T10:10:54.794Z,58.00
2018-03-18T10:13:23.190Z,57.90
2018-03-18T10:15:51.586Z,59.00
2018-03-18T10:18:19.972Z,58.70
2018-03-18T10:20:49.199Z,57.60
2018-03-18T10:23:18.337Z,56.10
2018-03-18T10:25:46.733Z,56.10
2018-03-18T10:28:15.155Z,56.90
2018-03-18T10:30:44.651Z,57.00
2018-03-18T10:33:13.782Z,56.60
2018-03-18T10:35:42.149Z,56.50
2018-03-18T10:38:10.591Z,56.80
2018-03-18T10:40:38.970Z,56.90
2018-03-18T10:43:07.367Z,55.80
2018-03-18T10:45:36.626Z,55.40
2018-03-18T10:48:05.051Z,55.40
2018-03-18T10:50:33.434Z,55.20
2018-03-18T10:53:02.036Z,54.40
2018-03-18T10:55:30.431Z,54.60
2018-03-18T10:57:58.924Z,54.00
2018-03-18T11:00:32.826Z,54.00
2018-03-18T11:03:01.509Z,52.70
2018-03-18T11:05:30.214Z,51.90
2018-03-18T11:07:58.986Z,51.80
2018-03-18T11:10:28.487Z,51.70
2018-03-18T11:12:57.681Z,52.30
2018-03-18T11:15:26.601Z,52.30
2018-03-18T11:17:55.999Z,51.40
2018-03-18T11:20:24.394Z,51.90
2018-03-18T11:22:53.823Z,53.10
2018-03-18T11:25:22.225Z,52.60
2018-03-18T11:27:51.227Z,52.70
2018-03-18T11:30:19.761Z,53.00
2018-03-18T11:32:48.903Z,52.50
2018-03-18T11:35:17.330Z,52.50
2018-03-18T11:37:46.541Z,51.50
2018-03-18T11:40:15.752Z,51.60
2018-03-18T11:42:44.148Z,51.60
2018-03-18T11:45:12.847Z,51.40
2018-03-18T11:47:41.363Z,52.60
2018-03-18T11:50:09.809Z,51.70
2018-03-18T11:52:38.246Z,52.20
2018-03-18T11:55:07.398Z,52.00
2018-03-18T11:57:35.833Z,52.00
2018-03-18T12:00:04.193Z,52.40
2018-03-18T12:02:33.577Z,53.80
2018-03-18T12:05:02.129Z,53.70
2018-03-18T12:07:30.511Z,53.00
2018-03-18T12:09:58.969Z,53.70
2018-03-18T12:12:28.261Z,53.90
2018-03-18T12:14:56.863Z,53.90
2018-03-18T12:17:25.238Z,54.20
2018-03-18T12:19:53.603Z,54.10
2018-03-18T12:22:21.995Z,53.50
2018-03-18T12:24:50.363Z,52.80
2018-03-18T12:27:18.755Z,52.70
2018-03-18T12:29:47.123Z,52.50
2018-03-18T12:32:15.717Z,52.70
2018-03-18T12:34:44.091Z,52.90
2018-03-18T12:37:12.537Z,52.30
2018-03-18T12:39:59.402Z,52.50
2018-03-18T12:42:45.574Z,52.40
2018-03-18T12:45:13.961Z,52.70
2018-03-18T12:47:42.342Z,53.40
2018-03-18T12:50:10.914Z,53.20
2018-03-18T12:52:39.285Z,54.10
2018-03-18T12:55:07.681Z,53.50
2018-03-18T12:57:36.078Z,53.40
2018-03-18T13:00:04.470Z,53.30
2018-03-18T13:02:33.100Z,54.10
2018-03-18T13:05:01.480Z,54.00
2018-03-18T13:07:29.906Z,54.00
2018-03-18T13:09:58.382Z,54.50
2018-03-18T13:12:26.747Z,55.20
2018-03-18T13:14:55.149Z,54.60
2018-03-18T13:17:23.517Z,55.00
2018-03-18T13:19:51.917Z,54.60
2018-03-18T13:22:20.315Z,54.50
2018-03-18T13:24:49.710Z,55.20
2018-03-18T13:27:18.355Z,55.20
2018-03-18T13:29:47.801Z,55.80
2018-03-18T13:32:16.961Z,55.00
2018-03-18T13:34:45.415Z,55.00
2018-03-18T13:37:13.846Z,55.80
2018-03-18T13:39:43.215Z,55.60
2018-03-18T13:42:11.881Z,55.20
2018-03-18T13:44:40.451Z,55.20
2018-03-18T13:47:08.822Z,55.20
2018-03-18T13:49:38.600Z,55.70
2018-03-18T13:52:07.036Z,55.30
2018-03-18T13:54:35.809Z,55.70
2018-03-18T13:57:04.266Z,56.00
2018-03-18T13:59:33.099Z,56.70
2018-03-18T14:02:01.631Z,56.00
2018-03-18T14:04:30.998Z,56.80
2018-03-18T14:07:00.692Z,56.80
2018-03-18T14:09:30.547Z,56.80
2018-03-18T14:12:00.111Z,56.60
2018-03-18T14:14:29.442Z,55.70
2018-03-18T14:16:58.002Z,55.70
2018-03-18T14:19:26.366Z,55.80
2018-03-18T14:21:54.985Z,56.40
2018-03-18T14:24:24.153Z,56.80
2018-03-18T14:26:52.550Z,56.80
2018-03-18T14:29:21.205Z,56.70
2018-03-18T14:31:49.595Z,56.90
2018-03-18T14:34:18.013Z,57.10
2018-03-18T14:36:46.381Z,57.10
2018-03-18T14:39:14.788Z,57.80
2018-03-18T14:41:43.953Z,57.90
2018-03-18T14:44:12.391Z,57.90
2018-03-18T14:46:40.788Z,57.70
2018-03-18T14:49:09.156Z,57.90
2018-03-18T14:51:38.060Z,58.30
2018-03-18T14:54:06.456Z,58.20
2018-03-18T14:56:35.228Z,57.80
2018-03-18T14:59:03.673Z,57.60
2018-03-18T15:01:32.130Z,57.50
2018-03-18T15:04:00.486Z,58.10
2018-03-18T15:06:28.850Z,57.90
2018-03-18T15:08:57.577Z,57.50
2018-03-18T15:11:26.735Z,58.30
2018-03-18T15:13:55.120Z,58.30
2018-03-18T15:16:23.515Z,57.90
2018-03-18T15:18:51.886Z,58.30
2018-03-18T15:21:20.389Z,58.10
2018-03-18T15:23:49.609Z,58.40
2018-03-18T15:26:18.214Z,58.30
2018-03-18T15:28:46.591Z,58.80
2018-03-18T15:31:14.970Z,58.50
2018-03-18T15:33:43.374Z,59.00
2018-03-18T15:36:11.750Z,59.10
2018-03-18T15:38:40.153Z,59.10
2018-03-18T15:41:09.294Z,59.20
2018-03-18T15:43:37.716Z,59.10
2018-03-18T15:46:06.112Z,59.10
2018-03-18T15:48:34.491Z,58.70
2018-03-18T15:51:03.642Z,59.20
2018-03-18T15:53:32.010Z,59.10
2018-03-18T15:56:00.706Z,59.00
2018-03-18T15:58:29.134Z,58.70
2018-03-18T16:00:58.309Z,58.70
2018-03-18T16:03:26.711Z,58.60
2018-03-18T16:05:55.868Z,59.20
2018-03-18T16:08:24.450Z,59.20
2018-03-18T16:10:53.173Z,58.90
2018-03-18T16:13:23.046Z,59.30
2018-03-18T16:15:52.782Z,59.30
2018-03-18T16:18:21.995Z,59.50
2018-03-18T16:20:51.167Z,59.40
2018-03-18T16:23:19.628Z,59.40
2018-03-18T16:25:48.037Z,59.60
2018-03-18T16:28:16.402Z,59.80
2018-03-18T16:31:02.623Z,59.60
2018-03-18T16:33:31.766Z,60.70
2018-03-18T16:36:00.162Z,60.70
2018-03-18T16:38:28.534Z,60.30
2018-03-18T16:40:57.145Z,60.20
2018-03-18T16:43:25.568Z,60.10
2018-03-18T16:45:53.945Z,60.30
2018-03-18T16:48:22.345Z,60.20
2018-03-18T16:50:50.734Z,60.40
2018-03-18T16:53:19.190Z,60.00
2018-03-18T16:55:47.645Z,61.60
2018-03-18T16:58:16.177Z,60.50
2018-03-18T17:00:44.546Z,60.00
2018-03-18T17:03:12.923Z,60.10
2018-03-18T17:05:42.353Z,60.20
2018-03-18T17:08:10.731Z,60.50
2018-03-18T17:10:39.153Z,59.80
2018-03-18T17:13:08.291Z,60.10
2018-03-18T17:15:37.077Z,60.00
2018-03-18T17:18:05.469Z,60.40
2018-03-18T17:20:33.852Z,60.50
2018-03-18T17:23:02.278Z,60.70
2018-03-18T17:25:30.830Z,59.40
2018-03-18T17:27:59.273Z,59.70
2018-03-18T17:30:29.095Z,59.70
2018-03-18T17:32:57.766Z,59.60
2018-03-18T17:35:27.175Z,60.10
2018-03-18T17:37:55.596Z,60.60
2018-03-18T17:40:24.293Z,60.00
2018-03-18T17:42:53.438Z,60.20
2018-03-18T17:45:40.045Z,60.10
2018-03-18T17:48:26.721Z,60.20
2018-03-18T17:51:13.581Z,59.80
2018-03-18T17:54:00.494Z,60.20
2018-03-18T17:56:37.722Z,60.10
2018-03-18T17:59:07.065Z,60.60
2018-03-18T18:01:35.619Z,60.60
2018-03-18T18:04:04.030Z,60.60
2018-03-18T18:06:32.531Z,61.50
2018-03-18T18:09:03.422Z,61.00
2018-03-18T18:11:32.025Z,61.00
2018-03-18T18:14:01.569Z,60.90
2018-03-18T18:16:30.227Z,59.90
2018-03-18T18:18:59.420Z,60.80
2018-03-18T18:21:28.247Z,60.90
2018-03-18T18:23:57.530Z,60.10
2018-03-18T18:26:26.195Z,60.10
2018-03-18T18:28:55.087Z,60.90
2018-03-18T18:31:23.491Z,60.50
2018-03-18T18:33:51.974Z,60.80
2018-03-18T18:36:20.428Z,60.10
2018-03-18T18:38:48.793Z,60.70
2018-03-18T18:41:17.548Z,60.70
2018-03-18T18:43:46.094Z,60.20
2018-03-18T18:46:16.251Z,60.80
2018-03-18T18:48:45.112Z,61.20
2018-03-18T18:51:14.785Z,60.80
2018-03-18T18:53:43.263Z,60.80
2018-03-18T18:56:12.179Z,60.80
2018-03-18T18:58:41.966Z,60.80
2018-03-18T19:01:11.755Z,61.20
2018-03-18T19:03:40.648Z,60.90
2018-03-18T19:06:09.142Z,60.80
2018-03-18T19:08:38.245Z,60.80
2018-03-18T19:11:07.348Z,60.80
2018-03-18T19:13:37.591Z,60.60
2018-03-18T19:16:07.292Z,60.70
2018-03-18T19:18:37.092Z,61.20
2018-03-18T19:21:06.447Z,61.30
2018-03-18T19:23:35.582Z,61.30
2018-03-18T19:26:04.634Z,61.70
2018-03-18T19:28:33.215Z,61.00
2018-03-18T19:31:01.677Z,59.80
2018-03-18T19:33:30.707Z,60.20
2018-03-18T19:35:59.437Z,59.30
2018-03-18T19:38:27.823Z,59.60
2018-03-18T19:40:56.475Z,60.00
2018-03-18T19:43:24.882Z,59.60
2018-03-18T19:45:53.445Z,60.20
2018-03-18T19:48:21.867Z,59.80
2018-03-18T19:50:51.517Z,60.60
2018-03-18T19:53:21.076Z,60.60
2018-03-18T19:55:49.490Z,61.10
2018-03-18T19:58:17.870Z,60.60
2018-03-18T20:00:47.431Z,61.50
2018-03-18T20:03:15.818Z,61.00
2018-03-18T20:05:44.982Z,61.20
2018-03-18T20:08:13.419Z,61.20
2018-03-18T20:10:42.710Z,60.30
2018-03-18T20:13:11.950Z,59.80
2018-03-18T20:15:40.546Z,59.70
2018-03-18T20:18:08.921Z,59.60
2018-03-18T20:20:37.293Z,59.80
2018-03-18T20:23:05.701Z,59.80
2018-03-18T20:25:35.791Z,59.20
2018-03-18T20:28:05.295Z,59.80
2018-03-18T20:30:33.889Z,60.30
2018-03-18T20:33:02.666Z,59.60
2018-03-18T20:35:31.804Z,60.10
2018-03-18T20:38:01.493Z,60.10
2018-03-18T20:40:30.160Z,60.30
2018-03-18T20:42:59.563Z,59.80
2018-03-18T20:45:28.246Z,59.80
2018-03-18T20:47:56.658Z,59.80
2018-03-18T20:50:26.009Z,59.70
2018-03-18T20:52:54.459Z,59.80
2018-03-18T20:55:26.329Z,59.80
2018-03-18T20:57:54.768Z,59.50
2018-03-18T21:00:23.569Z,59.30
2018-03-18T21:02:53.654Z,60.00
2018-03-18T21:05:22.838Z,60.10
2018-03-18T21:07:51.906Z,60.10
2018-03-18T21:10:21.305Z,59.80
2018-03-18T21:12:50.094Z,59.00
2018-03-18T21:15:18.888Z,59.70
2018-03-18T21:17:47.615Z,59.80
2018-03-18T21:20:16.175Z,59.80
2018-03-18T21:22:44.562Z,59.50
2018-03-18T21:25:13.569Z,59.40
2018-03-18T21:27:42.926Z,59.50
2018-03-18T21:30:11.449Z,59.90
2018-03-18T21:32:41.159Z,60.30
2018-03-18T21:35:10.052Z,60.60
2018-03-18T21:37:39.142Z,59.90
2018-03-18T21:40:08.239Z,59.90
2018-03-18T21:42:37.981Z,60.20
2018-03-18T21:45:06.490Z,60.60
2018-03-18T21:47:35.013Z,60.50
2018-03-18T21:50:03.871Z,60.20
2018-03-18T21:52:32.718Z,60.70
2018-03-18T21:55:02.340Z,61.00
2018-03-18T21:57:31.530Z,60.30
2018-03-18T21:59:59.975Z,60.30
2018-03-18T22:02:28.533Z,60.50
2018-03-18T22:04:57.387Z,60.60
2018-03-18T22:07:26.772Z,60.10
2018-03-18T22:09:56.081Z,60.60
2018-03-18T22:12:24.692Z,60.60
2018-03-18T22:14:53.846Z,60.70
2018-03-18T22:17:22.255Z,60.60
2018-03-18T22:19:51.439Z,61.00
2018-03-18T22:22:19.838Z,60.90
2018-03-18T22:24:49.441Z,60.70
2018-03-18T22:27:18.675Z,60.10
2018-03-18T22:29:47.139Z,60.10
2018-03-18T22:32:15.574Z,60.20
2018-03-18T22:34:44.410Z,60.20
2018-03-18T22:37:12.795Z,60.80
2018-03-18T22:39:41.220Z,60.40
2018-03-18T22:42:10.067Z,60.40
2018-03-18T22:44:39.236Z,61.00
2018-03-18T22:47:08.699Z,59.40
2018-03-18T22:49:37.489Z,59.30
2018-03-18T22:52:05.874Z,60.50
2018-03-18T22:54:34.283Z,59.70
2018-03-18T22:57:03.433Z,60.60
2018-03-18T22:59:31.808Z,60.60
2018-03-18T23:02:00.214Z,60.70
2018-03-18T23:04:28.598Z,60.70
2018-03-18T23:06:56.978Z,60.30
2018-03-18T23:09:25.407Z,60.10
2018-03-18T23:11:53.785Z,60.20
2018-03-18T23:14:22.167Z,60.50
2018-03-18T23:16:50.578Z,60.00
2018-03-18T23:19:18.966Z,60.30
2018-03-18T23:21:47.346Z,59.60
2018-03-18T23:24:15.753Z,59.40
2018-03-18T23:26:44.896Z,60.50
2018-03-18T23:29:13.313Z,60.50
2018-03-18T23:31:41.729Z,60.60
2018-03-18T23:34:10.111Z,60.50
2018-03-18T23:36:38.496Z,60.80
2018-03-18T23:39:06.903Z,60.80
2018-03-18T23:41:35.295Z,60.70
2018-03-18T23:44:03.674Z,61.10
2018-03-18T23:46:32.083Z,61.00
2018-03-18T23:49:01.234Z,60.60
2018-03-18T23:51:29.613Z,60.60
2018-03-18T23:53:58.035Z,60.80
2018-03-18T23:56:26.413Z,60.50
2018-03-18T23:58:55.566Z,61.00
